sensor_id;sensor_type;location;lat;lon;timestamp;P1;durP1;ratioP1;P2;durP2;ratioP2
45522;SDS011;31254;51.680;5.394;2024-03-23T00:55:51;14.15;;;3.63;;
45522;SDS011;31254;51.680;5.394;2024-03-23T00:58:17;22.20;;;4.20;;
45522;SDS011;31254;51.680;5.394;2024-03-23T01:00:43;15.25;;;3.70;;
45522;SDS011;31254;51.680;5.394;2024-03-23T01:03:08;20.63;;;4.25;;
45522;SDS011;31254;51.680;5.394;2024-03-23T01:05:34;15.43;;;3.83;;
45522;SDS011;31254;51.680;5.394;2024-03-23T01:07:59;17.55;;;4.00;;
45522;SDS011;31254;51.680;5.394;2024-03-23T01:10:25;10.52;;;3.50;;
45522;SDS011;31254;51.680;5.394;2024-03-23T01:12:51;14.43;;;4.18;;
45522;SDS011;31254;51.680;5.394;2024-03-23T01:15:16;13.63;;;4.40;;
45522;SDS011;31254;51.680;5.394;2024-03-23T01:17:42;14.38;;;4.03;;
45522;SDS011;31254;51.680;5.394;2024-03-23T01:20:07;16.05;;;4.13;;
45522;SDS011;31254;51.680;5.394;2024-03-23T01:22:36;12.27;;;3.97;;
45522;SDS011;31254;51.680;5.394;2024-03-23T01:25:02;18.60;;;4.32;;
45522;SDS011;31254;51.680;5.394;2024-03-23T01:27:27;14.98;;;4.40;;
45522;SDS011;31254;51.680;5.394;2024-03-23T01:29:53;16.88;;;4.75;;
45522;SDS011;31254;51.680;5.394;2024-03-23T01:32:19;14.43;;;4.85;;
45522;SDS011;31254;51.680;5.394;2024-03-23T01:34:45;13.98;;;4.85;;
45522;SDS011;31254;51.680;5.394;2024-03-23T01:37:11;17.20;;;5.07;;
45522;SDS011;31254;51.680;5.394;2024-03-23T01:39:36;16.15;;;4.85;;
45522;SDS011;31254;51.680;5.394;2024-03-23T01:42:04;15.00;;;5.22;;
45522;SDS011;31254;51.680;5.394;2024-03-23T01:44:31;11.35;;;4.32;;
45522;SDS011;31254;51.680;5.394;2024-03-23T01:46:56;13.00;;;4.50;;
45522;SDS011;31254;51.680;5.394;2024-03-23T01:49:22;20.73;;;5.53;;
45522;SDS011;31254;51.680;5.394;2024-03-23T01:51:48;14.85;;;4.82;;
45522;SDS011;31254;51.680;5.394;2024-03-23T01:54:13;19.40;;;4.53;;
45522;SDS011;31254;51.680;5.394;2024-03-23T01:56:39;16.90;;;4.85;;
45522;SDS011;31254;51.680;5.394;2024-03-23T01:59:05;18.23;;;4.43;;
45522;SDS011;31254;51.680;5.394;2024-03-23T02:01:32;15.65;;;4.22;;
45522;SDS011;31254;51.680;5.394;2024-03-23T02:03:59;15.90;;;4.25;;
45522;SDS011;31254;51.680;5.394;2024-03-23T02:06:25;16.10;;;3.85;;
45522;SDS011;31254;51.680;5.394;2024-03-23T02:08:51;18.35;;;4.47;;
45522;SDS011;31254;51.680;5.394;2024-03-23T02:11:17;16.63;;;4.40;;
45522;SDS011;31254;51.680;5.394;2024-03-23T02:13:42;13.55;;;3.92;;
45522;SDS011;31254;51.680;5.394;2024-03-23T02:16:08;13.90;;;4.22;;
45522;SDS011;31254;51.680;5.394;2024-03-23T02:18:34;15.30;;;4.47;;
45522;SDS011;31254;51.680;5.394;2024-03-23T02:21:00;14.82;;;4.95;;
45522;SDS011;31254;51.680;5.394;2024-03-23T02:23:25;20.50;;;4.07;;
45522;SDS011;31254;51.680;5.394;2024-03-23T02:25:51;14.52;;;4.53;;
45522;SDS011;31254;51.680;5.394;2024-03-23T02:28:18;13.07;;;4.20;;
45522;SDS011;31254;51.680;5.394;2024-03-23T02:30:44;16.67;;;4.28;;
45522;SDS011;31254;51.680;5.394;2024-03-23T02:33:10;16.17;;;4.38;;
45522;SDS011;31254;51.680;5.394;2024-03-23T02:35:36;18.55;;;4.10;;
45522;SDS011;31254;51.680;5.394;2024-03-23T02:38:01;16.15;;;4.63;;
45522;SDS011;31254;51.680;5.394;2024-03-23T02:40:27;17.42;;;5.35;;
45522;SDS011;31254;51.680;5.394;2024-03-23T02:42:53;13.30;;;4.15;;
45522;SDS011;31254;51.680;5.394;2024-03-23T02:45:19;15.43;;;4.32;;
45522;SDS011;31254;51.680;5.394;2024-03-23T02:47:45;14.30;;;4.07;;
45522;SDS011;31254;51.680;5.394;2024-03-23T02:50:10;13.50;;;4.30;;
45522;SDS011;31254;51.680;5.394;2024-03-23T02:52:36;18.95;;;4.85;;
45522;SDS011;31254;51.680;5.394;2024-03-23T02:55:02;18.58;;;4.25;;
45522;SDS011;31254;51.680;5.394;2024-03-23T02:57:31;13.20;;;5.03;;
45522;SDS011;31254;51.680;5.394;2024-03-23T02:59:57;13.93;;;4.40;;
45522;SDS011;31254;51.680;5.394;2024-03-23T03:02:23;16.50;;;4.32;;
45522;SDS011;31254;51.680;5.394;2024-03-23T03:04:48;16.40;;;3.90;;
45522;SDS011;31254;51.680;5.394;2024-03-23T03:07:14;13.90;;;3.83;;
45522;SDS011;31254;51.680;5.394;2024-03-23T03:09:40;14.10;;;3.38;;
45522;SDS011;31254;51.680;5.394;2024-03-23T03:12:06;12.23;;;3.78;;
45522;SDS011;31254;51.680;5.394;2024-03-23T03:14:32;13.20;;;3.70;;
45522;SDS011;31254;51.680;5.394;2024-03-23T03:16:58;19.20;;;3.95;;
45522;SDS011;31254;51.680;5.394;2024-03-23T03:19:23;11.57;;;3.33;;
45522;SDS011;31254;51.680;5.394;2024-03-23T03:21:49;12.13;;;3.38;;
45522;SDS011;31254;51.680;5.394;2024-03-23T03:24:14;12.80;;;3.33;;
45522;SDS011;31254;51.680;5.394;2024-03-23T03:26:40;17.20;;;3.25;;
45522;SDS011;31254;51.680;5.394;2024-03-23T03:29:06;15.70;;;3.50;;
45522;SDS011;31254;51.680;5.394;2024-03-23T03:31:31;19.35;;;3.45;;
45522;SDS011;31254;51.680;5.394;2024-03-23T03:33:57;19.42;;;3.35;;
45522;SDS011;31254;51.680;5.394;2024-03-23T03:36:22;13.50;;;2.95;;
45522;SDS011;31254;51.680;5.394;2024-03-23T03:38:48;18.40;;;3.28;;
45522;SDS011;31254;51.680;5.394;2024-03-23T03:41:14;16.50;;;3.10;;
45522;SDS011;31254;51.680;5.394;2024-03-23T03:43:39;12.77;;;2.95;;
45522;SDS011;31254;51.680;5.394;2024-03-23T03:46:05;10.98;;;2.80;;
45522;SDS011;31254;51.680;5.394;2024-03-23T03:48:33;20.25;;;3.30;;
45522;SDS011;31254;51.680;5.394;2024-03-23T03:50:59;20.85;;;3.30;;
45522;SDS011;31254;51.680;5.394;2024-03-23T03:53:25;13.27;;;2.53;;
45522;SDS011;31254;51.680;5.394;2024-03-23T03:55:51;13.77;;;2.70;;
45522;SDS011;31254;51.680;5.394;2024-03-23T03:58:17;15.05;;;2.80;;
45522;SDS011;31254;51.680;5.394;2024-03-23T04:00:43;9.82;;;2.60;;
45522;SDS011;31254;51.680;5.394;2024-03-23T04:03:09;10.90;;;2.75;;
45522;SDS011;31254;51.680;5.394;2024-03-23T04:05:34;11.65;;;3.38;;
45522;SDS011;31254;51.680;5.394;2024-03-23T04:08:00;11.52;;;2.63;;
45522;SDS011;31254;51.680;5.394;2024-03-23T04:10:25;14.57;;;2.97;;
45522;SDS011;31254;51.680;5.394;2024-03-23T04:12:52;14.65;;;2.83;;
45522;SDS011;31254;51.680;5.394;2024-03-23T04:15:17;17.63;;;3.20;;
45522;SDS011;31254;51.680;5.394;2024-03-23T04:17:43;10.73;;;2.65;;
45522;SDS011;31254;51.680;5.394;2024-03-23T04:20:09;9.27;;;2.80;;
45522;SDS011;31254;51.680;5.394;2024-03-23T04:22:37;12.75;;;2.75;;
45522;SDS011;31254;51.680;5.394;2024-03-23T04:25:03;10.70;;;2.80;;
45522;SDS011;31254;51.680;5.394;2024-03-23T04:27:32;19.05;;;3.28;;
45522;SDS011;31254;51.680;5.394;2024-03-23T04:29:58;15.05;;;3.08;;
45522;SDS011;31254;51.680;5.394;2024-03-23T04:32:26;10.13;;;3.03;;
45522;SDS011;31254;51.680;5.394;2024-03-23T04:34:52;13.90;;;2.90;;
45522;SDS011;31254;51.680;5.394;2024-03-23T04:37:17;12.93;;;3.55;;
45522;SDS011;31254;51.680;5.394;2024-03-23T04:39:43;18.10;;;3.15;;
45522;SDS011;31254;51.680;5.394;2024-03-23T04:42:09;19.45;;;3.65;;
45522;SDS011;31254;51.680;5.394;2024-03-23T04:44:34;10.55;;;2.60;;
45522;SDS011;31254;51.680;5.394;2024-03-23T04:47:00;18.20;;;3.75;;
45522;SDS011;31254;51.680;5.394;2024-03-23T04:49:26;14.63;;;3.40;;
45522;SDS011;31254;51.680;5.394;2024-03-23T04:51:51;20.50;;;3.35;;
45522;SDS011;31254;51.680;5.394;2024-03-23T04:54:17;20.73;;;3.97;;
45522;SDS011;31254;51.680;5.394;2024-03-23T04:56:43;12.30;;;3.33;;
45522;SDS011;31254;51.680;5.394;2024-03-23T04:59:09;13.30;;;3.60;;
45522;SDS011;31254;51.680;5.394;2024-03-23T05:01:34;13.25;;;3.42;;
45522;SDS011;31254;51.680;5.394;2024-03-23T05:04:00;23.53;;;4.30;;
45522;SDS011;31254;51.680;5.394;2024-03-23T05:06:26;11.33;;;3.40;;
45522;SDS011;31254;51.680;5.394;2024-03-23T05:08:54;17.67;;;3.27;;
45522;SDS011;31254;51.680;5.394;2024-03-23T05:11:19;14.33;;;4.10;;
45522;SDS011;31254;51.680;5.394;2024-03-23T05:13:46;20.08;;;4.45;;
45522;SDS011;31254;51.680;5.394;2024-03-23T05:16:11;17.27;;;3.95;;
45522;SDS011;31254;51.680;5.394;2024-03-23T05:18:37;18.30;;;3.40;;
45522;SDS011;31254;51.680;5.394;2024-03-23T05:21:03;14.03;;;3.70;;
45522;SDS011;31254;51.680;5.394;2024-03-23T05:23:29;22.13;;;3.87;;
45522;SDS011;31254;51.680;5.394;2024-03-23T05:25:55;19.07;;;4.40;;
45522;SDS011;31254;51.680;5.394;2024-03-23T05:28:21;14.13;;;3.70;;
45522;SDS011;31254;51.680;5.394;2024-03-23T05:30:51;13.60;;;3.83;;
45522;SDS011;31254;51.680;5.394;2024-03-23T05:33:18;12.57;;;3.33;;
45522;SDS011;31254;51.680;5.394;2024-03-23T05:35:56;15.23;;;3.90;;
45522;SDS011;31254;51.680;5.394;2024-03-23T05:38:22;16.07;;;3.53;;
45522;SDS011;31254;51.680;5.394;2024-03-23T05:40:54;12.73;;;4.13;;
45522;SDS011;31254;51.680;5.394;2024-03-23T05:43:20;15.07;;;4.30;;
45522;SDS011;31254;51.680;5.394;2024-03-23T05:45:52;16.07;;;4.07;;
45522;SDS011;31254;51.680;5.394;2024-03-23T05:48:19;15.53;;;4.10;;
45522;SDS011;31254;51.680;5.394;2024-03-23T05:50:45;15.13;;;4.27;;
45522;SDS011;31254;51.680;5.394;2024-03-23T05:53:10;15.70;;;4.40;;
45522;SDS011;31254;51.680;5.394;2024-03-23T05:55:38;16.45;;;4.40;;
45522;SDS011;31254;51.680;5.394;2024-03-23T05:58:04;17.10;;;4.78;;
45522;SDS011;31254;51.680;5.394;2024-03-23T06:00:29;18.97;;;4.70;;
45522;SDS011;31254;51.680;5.394;2024-03-23T06:02:55;19.65;;;4.72;;
45522;SDS011;31254;51.680;5.394;2024-03-23T06:05:20;15.35;;;4.03;;
45522;SDS011;31254;51.680;5.394;2024-03-23T06:07:46;19.55;;;4.47;;
45522;SDS011;31254;51.680;5.394;2024-03-23T06:10:12;20.55;;;4.60;;
45522;SDS011;31254;51.680;5.394;2024-03-23T06:12:38;14.13;;;4.15;;
45522;SDS011;31254;51.680;5.394;2024-03-23T06:15:04;15.60;;;3.72;;
45522;SDS011;31254;51.680;5.394;2024-03-23T06:17:30;15.52;;;3.92;;
45522;SDS011;31254;51.680;5.394;2024-03-23T06:19:56;17.33;;;4.03;;
45522;SDS011;31254;51.680;5.394;2024-03-23T06:22:22;15.07;;;4.25;;
45522;SDS011;31254;51.680;5.394;2024-03-23T06:24:48;14.95;;;4.03;;
45522;SDS011;31254;51.680;5.394;2024-03-23T06:27:13;11.32;;;4.15;;
45522;SDS011;31254;51.680;5.394;2024-03-23T06:29:39;14.63;;;3.83;;
45522;SDS011;31254;51.680;5.394;2024-03-23T06:32:04;20.70;;;4.25;;
45522;SDS011;31254;51.680;5.394;2024-03-23T06:34:30;15.38;;;3.42;;
45522;SDS011;31254;51.680;5.394;2024-03-23T06:36:55;11.07;;;3.65;;
45522;SDS011;31254;51.680;5.394;2024-03-23T06:39:21;15.68;;;3.80;;
45522;SDS011;31254;51.680;5.394;2024-03-23T06:41:53;12.52;;;3.70;;
45522;SDS011;31254;51.680;5.394;2024-03-23T06:44:19;16.10;;;3.53;;
45522;SDS011;31254;51.680;5.394;2024-03-23T06:46:45;10.23;;;3.20;;
45522;SDS011;31254;51.680;5.394;2024-03-23T06:49:11;12.82;;;3.03;;
45522;SDS011;31254;51.680;5.394;2024-03-23T06:51:37;18.02;;;2.97;;
45522;SDS011;31254;51.680;5.394;2024-03-23T06:54:03;16.38;;;3.30;;
45522;SDS011;31254;51.680;5.394;2024-03-23T06:56:30;15.27;;;2.90;;
45522;SDS011;31254;51.680;5.394;2024-03-23T06:58:56;13.10;;;2.70;;
45522;SDS011;31254;51.680;5.394;2024-03-23T07:01:22;13.27;;;2.80;;
45522;SDS011;31254;51.680;5.394;2024-03-23T07:03:48;10.35;;;2.38;;
45522;SDS011;31254;51.680;5.394;2024-03-23T07:06:13;9.48;;;2.17;;
45522;SDS011;31254;51.680;5.394;2024-03-23T07:08:39;8.23;;;2.40;;
45522;SDS011;31254;51.680;5.394;2024-03-23T07:11:05;7.35;;;2.20;;
45522;SDS011;31254;51.680;5.394;2024-03-23T07:13:30;11.82;;;2.25;;
45522;SDS011;31254;51.680;5.394;2024-03-23T07:15:56;8.45;;;1.65;;
45522;SDS011;31254;51.680;5.394;2024-03-23T07:18:22;6.93;;;1.42;;
45522;SDS011;31254;51.680;5.394;2024-03-23T07:20:52;9.73;;;1.90;;
45522;SDS011;31254;51.680;5.394;2024-03-23T07:23:18;13.45;;;1.83;;
45522;SDS011;31254;51.680;5.394;2024-03-23T07:25:55;12.02;;;1.92;;
45522;SDS011;31254;51.680;5.394;2024-03-23T07:28:24;12.40;;;1.98;;
45522;SDS011;31254;51.680;5.394;2024-03-23T07:31:05;17.05;;;2.60;;
45522;SDS011;31254;51.680;5.394;2024-03-23T07:33:34;6.90;;;2.03;;
45522;SDS011;31254;51.680;5.394;2024-03-23T07:36:02;13.02;;;2.20;;
45522;SDS011;31254;51.680;5.394;2024-03-23T07:38:28;8.43;;;2.33;;
45522;SDS011;31254;51.680;5.394;2024-03-23T07:41:07;7.78;;;1.88;;
45522;SDS011;31254;51.680;5.394;2024-03-23T07:43:34;9.48;;;1.70;;
45522;SDS011;31254;51.680;5.394;2024-03-23T07:46:00;11.63;;;2.08;;
45522;SDS011;31254;51.680;5.394;2024-03-23T07:48:27;15.27;;;2.30;;
45522;SDS011;31254;51.680;5.394;2024-03-23T07:53:21;8.40;;;1.95;;
45522;SDS011;31254;51.680;5.394;2024-03-23T07:56:01;14.20;;;2.50;;
45522;SDS011;31254;51.680;5.394;2024-03-23T07:58:28;14.75;;;2.30;;
45522;SDS011;31254;51.680;5.394;2024-03-23T08:00:54;9.63;;;1.80;;
45522;SDS011;31254;51.680;5.394;2024-03-23T08:03:21;11.95;;;2.10;;
45522;SDS011;31254;51.680;5.394;2024-03-23T08:05:47;13.23;;;2.28;;
45522;SDS011;31254;51.680;5.394;2024-03-23T08:08:12;11.23;;;2.15;;
45522;SDS011;31254;51.680;5.394;2024-03-23T08:10:48;8.93;;;2.13;;
45522;SDS011;31254;51.680;5.394;2024-03-23T08:13:17;10.88;;;2.33;;
45522;SDS011;31254;51.680;5.394;2024-03-23T08:15:43;8.43;;;1.65;;
45522;SDS011;31254;51.680;5.394;2024-03-23T08:18:12;9.48;;;2.20;;
45522;SDS011;31254;51.680;5.394;2024-03-23T08:20:40;9.40;;;1.60;;
45522;SDS011;31254;51.680;5.394;2024-03-23T08:23:06;8.35;;;1.67;;
45522;SDS011;31254;51.680;5.394;2024-03-23T08:25:33;11.32;;;2.00;;
45522;SDS011;31254;51.680;5.394;2024-03-23T08:27:59;10.13;;;1.88;;
45522;SDS011;31254;51.680;5.394;2024-03-23T08:30:25;9.40;;;1.70;;
45522;SDS011;31254;51.680;5.394;2024-03-23T08:32:50;8.50;;;1.67;;
45522;SDS011;31254;51.680;5.394;2024-03-23T08:35:16;8.30;;;1.70;;
45522;SDS011;31254;51.680;5.394;2024-03-23T08:37:42;7.32;;;1.48;;
45522;SDS011;31254;51.680;5.394;2024-03-23T08:40:08;8.50;;;1.42;;
45522;SDS011;31254;51.680;5.394;2024-03-23T08:42:34;11.15;;;1.60;;
45522;SDS011;31254;51.680;5.394;2024-03-23T08:45:03;10.23;;;1.67;;
45522;SDS011;31254;51.680;5.394;2024-03-23T08:47:29;12.82;;;1.73;;
45522;SDS011;31254;51.680;5.394;2024-03-23T08:49:54;9.52;;;2.13;;
45522;SDS011;31254;51.680;5.394;2024-03-23T08:52:20;7.22;;;1.50;;
45522;SDS011;31254;51.680;5.394;2024-03-23T08:54:48;9.00;;;1.90;;
45522;SDS011;31254;51.680;5.394;2024-03-23T08:57:14;6.07;;;1.60;;
45522;SDS011;31254;51.680;5.394;2024-03-23T08:59:39;11.23;;;1.70;;
45522;SDS011;31254;51.680;5.394;2024-03-23T09:02:05;16.83;;;2.22;;
45522;SDS011;31254;51.680;5.394;2024-03-23T09:04:40;10.40;;;1.92;;
45522;SDS011;31254;51.680;5.394;2024-03-23T09:07:06;7.82;;;1.92;;
45522;SDS011;31254;51.680;5.394;2024-03-23T09:09:31;9.65;;;2.10;;
45522;SDS011;31254;51.680;5.394;2024-03-23T09:11:57;10.77;;;1.98;;
45522;SDS011;31254;51.680;5.394;2024-03-23T09:14:23;7.57;;;1.77;;
45522;SDS011;31254;51.680;5.394;2024-03-23T09:16:51;10.15;;;1.83;;
45522;SDS011;31254;51.680;5.394;2024-03-23T09:19:17;8.02;;;1.27;;
45522;SDS011;31254;51.680;5.394;2024-03-23T09:21:43;8.02;;;1.23;;
45522;SDS011;31254;51.680;5.394;2024-03-23T09:24:08;11.77;;;2.25;;
45522;SDS011;31254;51.680;5.394;2024-03-23T09:26:34;7.35;;;1.63;;
45522;SDS011;31254;51.680;5.394;2024-03-23T09:29:00;6.95;;;1.45;;
45522;SDS011;31254;51.680;5.394;2024-03-23T09:31:25;8.15;;;1.40;;
45522;SDS011;31254;51.680;5.394;2024-03-23T09:33:51;9.55;;;1.75;;
45522;SDS011;31254;51.680;5.394;2024-03-23T09:36:17;7.20;;;1.70;;
45522;SDS011;31254;51.680;5.394;2024-03-23T09:38:42;5.63;;;1.73;;
45522;SDS011;31254;51.680;5.394;2024-03-23T09:41:08;8.32;;;1.83;;
45522;SDS011;31254;51.680;5.394;2024-03-23T09:43:34;5.32;;;1.10;;
45522;SDS011;31254;51.680;5.394;2024-03-23T09:46:03;5.65;;;1.42;;
45522;SDS011;31254;51.680;5.394;2024-03-23T09:48:30;8.20;;;1.90;;
45522;SDS011;31254;51.680;5.394;2024-03-23T09:50:56;9.73;;;2.10;;
45522;SDS011;31254;51.680;5.394;2024-03-23T09:53:22;11.75;;;1.75;;
45522;SDS011;31254;51.680;5.394;2024-03-23T09:55:48;8.02;;;1.55;;
45522;SDS011;31254;51.680;5.394;2024-03-23T09:58:15;10.00;;;1.50;;
45522;SDS011;31254;51.680;5.394;2024-03-23T10:00:42;7.15;;;1.30;;
45522;SDS011;31254;51.680;5.394;2024-03-23T10:03:07;4.50;;;1.15;;
45522;SDS011;31254;51.680;5.394;2024-03-23T10:05:36;10.35;;;1.90;;
45522;SDS011;31254;51.680;5.394;2024-03-23T10:10:43;7.13;;;1.40;;
45522;SDS011;31254;51.680;5.394;2024-03-23T10:13:10;5.88;;;1.27;;
45522;SDS011;31254;51.680;5.394;2024-03-23T10:15:38;7.10;;;1.40;;
45522;SDS011;31254;51.680;5.394;2024-03-23T10:18:18;6.15;;;1.73;;
45522;SDS011;31254;51.680;5.394;2024-03-23T10:20:47;6.97;;;1.65;;
45522;SDS011;31254;51.680;5.394;2024-03-23T10:23:17;8.30;;;1.95;;
45522;SDS011;31254;51.680;5.394;2024-03-23T10:25:43;9.70;;;2.60;;
45522;SDS011;31254;51.680;5.394;2024-03-23T10:28:09;10.02;;;3.15;;
45522;SDS011;31254;51.680;5.394;2024-03-23T10:30:36;9.88;;;2.38;;
45522;SDS011;31254;51.680;5.394;2024-03-23T10:33:11;12.30;;;2.42;;
45522;SDS011;31254;51.680;5.394;2024-03-23T10:35:38;10.10;;;2.30;;
45522;SDS011;31254;51.680;5.394;2024-03-23T10:38:05;12.18;;;3.10;;
45522;SDS011;31254;51.680;5.394;2024-03-23T10:40:33;13.65;;;2.42;;
45522;SDS011;31254;51.680;5.394;2024-03-23T10:43:00;11.52;;;3.67;;
45522;SDS011;31254;51.680;5.394;2024-03-23T10:45:29;6.63;;;1.27;;
45522;SDS011;31254;51.680;5.394;2024-03-23T10:47:55;6.18;;;1.50;;
45522;SDS011;31254;51.680;5.394;2024-03-23T10:50:21;8.55;;;1.58;;
45522;SDS011;31254;51.680;5.394;2024-03-23T10:52:48;7.93;;;1.63;;
45522;SDS011;31254;51.680;5.394;2024-03-23T10:55:15;8.68;;;1.85;;
45522;SDS011;31254;51.680;5.394;2024-03-23T10:57:53;8.50;;;2.25;;
45522;SDS011;31254;51.680;5.394;2024-03-23T11:00:21;9.40;;;2.75;;
45522;SDS011;31254;51.680;5.394;2024-03-23T11:02:50;6.05;;;2.05;;
45522;SDS011;31254;51.680;5.394;2024-03-23T11:05:31;7.38;;;1.67;;
45522;SDS011;31254;51.680;5.394;2024-03-23T11:07:57;5.97;;;1.30;;
45522;SDS011;31254;51.680;5.394;2024-03-23T11:10:29;5.28;;;1.20;;
45522;SDS011;31254;51.680;5.394;2024-03-23T11:12:57;7.97;;;1.42;;
45522;SDS011;31254;51.680;5.394;2024-03-23T11:15:22;4.10;;;0.93;;
45522;SDS011;31254;51.680;5.394;2024-03-23T11:18:02;5.53;;;1.27;;
45522;SDS011;31254;51.680;5.394;2024-03-23T11:20:31;4.57;;;1.00;;
45522;SDS011;31254;51.680;5.394;2024-03-23T11:22:57;5.35;;;1.52;;
45522;SDS011;31254;51.680;5.394;2024-03-23T11:25:23;3.65;;;1.20;;
45522;SDS011;31254;51.680;5.394;2024-03-23T11:27:51;6.20;;;1.00;;
45522;SDS011;31254;51.680;5.394;2024-03-23T11:30:21;4.57;;;1.10;;
45522;SDS011;31254;51.680;5.394;2024-03-23T11:32:48;7.90;;;1.08;;
45522;SDS011;31254;51.680;5.394;2024-03-23T11:35:28;6.82;;;1.02;;
45522;SDS011;31254;51.680;5.394;2024-03-23T11:38:04;5.03;;;1.10;;
45522;SDS011;31254;51.680;5.394;2024-03-23T11:40:31;5.38;;;0.90;;
45522;SDS011;31254;51.680;5.394;2024-03-23T11:43:02;4.68;;;0.93;;
45522;SDS011;31254;51.680;5.394;2024-03-23T11:45:33;4.10;;;0.90;;
45522;SDS011;31254;51.680;5.394;2024-03-23T11:48:03;5.40;;;0.98;;
45522;SDS011;31254;51.680;5.394;2024-03-23T11:50:39;8.82;;;1.30;;
45522;SDS011;31254;51.680;5.394;2024-03-23T11:53:29;8.93;;;1.38;;
45522;SDS011;31254;51.680;5.394;2024-03-23T11:55:56;9.30;;;2.13;;
45522;SDS011;31254;51.680;5.394;2024-03-23T11:58:24;10.60;;;2.20;;
45522;SDS011;31254;51.680;5.394;2024-03-23T12:00:51;7.32;;;1.60;;
45522;SDS011;31254;51.680;5.394;2024-03-23T12:03:31;9.20;;;1.77;;
45522;SDS011;31254;51.680;5.394;2024-03-23T12:06:01;8.48;;;1.80;;
45522;SDS011;31254;51.680;5.394;2024-03-23T12:11:15;11.23;;;1.88;;
45522;SDS011;31254;51.680;5.394;2024-03-23T12:13:41;7.10;;;1.20;;
45522;SDS011;31254;51.680;5.394;2024-03-23T12:16:09;9.68;;;1.45;;
45522;SDS011;31254;51.680;5.394;2024-03-23T12:18:46;6.93;;;1.42;;
45522;SDS011;31254;51.680;5.394;2024-03-23T12:21:15;5.18;;;1.30;;
45522;SDS011;31254;51.680;5.394;2024-03-23T12:23:42;6.22;;;1.20;;
45522;SDS011;31254;51.680;5.394;2024-03-23T12:26:10;6.90;;;1.80;;
45522;SDS011;31254;51.680;5.394;2024-03-23T12:28:37;5.97;;;1.15;;
45522;SDS011;31254;51.680;5.394;2024-03-23T12:31:03;5.57;;;1.23;;
45522;SDS011;31254;51.680;5.394;2024-03-23T12:33:28;6.57;;;1.10;;
45522;SDS011;31254;51.680;5.394;2024-03-23T12:35:54;6.65;;;1.45;;
45522;SDS011;31254;51.680;5.394;2024-03-23T12:38:20;9.63;;;1.50;;
45522;SDS011;31254;51.680;5.394;2024-03-23T12:40:48;5.45;;;0.95;;
45522;SDS011;31254;51.680;5.394;2024-03-23T12:43:14;8.02;;;1.30;;
45522;SDS011;31254;51.680;5.394;2024-03-23T12:45:41;6.00;;;1.20;;
45522;SDS011;31254;51.680;5.394;2024-03-23T12:48:11;6.07;;;1.23;;
45522;SDS011;31254;51.680;5.394;2024-03-23T12:50:36;9.60;;;1.40;;
45522;SDS011;31254;51.680;5.394;2024-03-23T12:53:03;5.13;;;1.30;;
45522;SDS011;31254;51.680;5.394;2024-03-23T12:55:28;6.32;;;1.20;;
45522;SDS011;31254;51.680;5.394;2024-03-23T12:57:54;5.63;;;1.20;;
45522;SDS011;31254;51.680;5.394;2024-03-23T13:00:19;10.20;;;1.40;;
45522;SDS011;31254;51.680;5.394;2024-03-23T13:02:45;10.35;;;1.27;;
45522;SDS011;31254;51.680;5.394;2024-03-23T13:05:11;5.97;;;1.25;;
45522;SDS011;31254;51.680;5.394;2024-03-23T13:07:36;6.85;;;1.30;;
45522;SDS011;31254;51.680;5.394;2024-03-23T13:10:04;5.97;;;1.30;;
45522;SDS011;31254;51.680;5.394;2024-03-23T13:12:30;10.77;;;1.30;;
45522;SDS011;31254;51.680;5.394;2024-03-23T13:14:58;9.57;;;1.35;;
45522;SDS011;31254;51.680;5.394;2024-03-23T13:17:24;9.45;;;1.33;;
45522;SDS011;31254;51.680;5.394;2024-03-23T13:19:50;8.48;;;1.45;;
45522;SDS011;31254;51.680;5.394;2024-03-23T13:22:16;9.23;;;1.52;;
45522;SDS011;31254;51.680;5.394;2024-03-23T13:24:41;10.00;;;1.42;;
45522;SDS011;31254;51.680;5.394;2024-03-23T13:27:07;7.75;;;1.20;;
45522;SDS011;31254;51.680;5.394;2024-03-23T13:29:34;5.93;;;1.10;;
45522;SDS011;31254;51.680;5.394;2024-03-23T13:32:05;5.95;;;1.38;;
45522;SDS011;31254;51.680;5.394;2024-03-23T13:34:32;5.40;;;1.10;;
45522;SDS011;31254;51.680;5.394;2024-03-23T13:36:58;10.50;;;1.60;;
45522;SDS011;31254;51.680;5.394;2024-03-23T13:39:24;8.38;;;1.30;;
45522;SDS011;31254;51.680;5.394;2024-03-23T13:41:52;5.30;;;1.52;;
45522;SDS011;31254;51.680;5.394;2024-03-23T13:44:18;5.22;;;1.38;;
45522;SDS011;31254;51.680;5.394;2024-03-23T13:46:43;8.93;;;1.25;;
45522;SDS011;31254;51.680;5.394;2024-03-23T13:51:54;9.73;;;1.40;;
45522;SDS011;31254;51.680;5.394;2024-03-23T13:54:21;8.95;;;1.33;;
45522;SDS011;31254;51.680;5.394;2024-03-23T13:56:56;8.63;;;1.50;;
45522;SDS011;31254;51.680;5.394;2024-03-23T13:59:22;10.82;;;1.38;;
45522;SDS011;31254;51.680;5.394;2024-03-23T14:01:51;7.78;;;1.27;;
45522;SDS011;31254;51.680;5.394;2024-03-23T14:04:17;9.07;;;1.23;;
45522;SDS011;31254;51.680;5.394;2024-03-23T14:06:44;9.93;;;1.55;;
45522;SDS011;31254;51.680;5.394;2024-03-23T14:09:14;6.75;;;1.25;;
45522;SDS011;31254;51.680;5.394;2024-03-23T14:11:41;7.72;;;1.30;;
45522;SDS011;31254;51.680;5.394;2024-03-23T14:14:08;13.10;;;1.58;;
45522;SDS011;31254;51.680;5.394;2024-03-23T14:16:34;8.77;;;1.40;;
45522;SDS011;31254;51.680;5.394;2024-03-23T14:19:00;10.15;;;1.58;;
45522;SDS011;31254;51.680;5.394;2024-03-23T14:21:25;8.63;;;1.85;;
45522;SDS011;31254;51.680;5.394;2024-03-23T14:23:51;9.20;;;1.40;;
45522;SDS011;31254;51.680;5.394;2024-03-23T14:26:17;10.15;;;1.60;;
45522;SDS011;31254;51.680;5.394;2024-03-23T14:28:42;8.75;;;1.35;;
45522;SDS011;31254;51.680;5.394;2024-03-23T14:31:08;9.52;;;1.70;;
45522;SDS011;31254;51.680;5.394;2024-03-23T14:33:39;4.78;;;0.90;;
45522;SDS011;31254;51.680;5.394;2024-03-23T14:36:12;7.68;;;1.20;;
45522;SDS011;31254;51.680;5.394;2024-03-23T14:38:38;12.15;;;1.17;;
45522;SDS011;31254;51.680;5.394;2024-03-23T14:41:04;10.93;;;1.40;;
45522;SDS011;31254;51.680;5.394;2024-03-23T14:43:30;9.80;;;1.10;;
45522;SDS011;31254;51.680;5.394;2024-03-23T14:46:05;7.13;;;1.58;;
45522;SDS011;31254;51.680;5.394;2024-03-23T14:48:35;8.25;;;1.60;;
45522;SDS011;31254;51.680;5.394;2024-03-23T14:51:01;6.22;;;1.05;;
45522;SDS011;31254;51.680;5.394;2024-03-23T14:53:34;2.63;;;0.63;;
45522;SDS011;31254;51.680;5.394;2024-03-23T14:56:01;3.13;;;0.60;;
45522;SDS011;31254;51.680;5.394;2024-03-23T14:58:28;4.15;;;0.70;;
45522;SDS011;31254;51.680;5.394;2024-03-23T15:01:04;7.15;;;0.68;;
45522;SDS011;31254;51.680;5.394;2024-03-23T15:03:31;3.97;;;0.52;;
45522;SDS011;31254;51.680;5.394;2024-03-23T15:05:57;1.90;;;0.70;;
45522;SDS011;31254;51.680;5.394;2024-03-23T15:08:25;4.55;;;0.80;;
45522;SDS011;31254;51.680;5.394;2024-03-23T15:10:51;4.50;;;0.80;;
45522;SDS011;31254;51.680;5.394;2024-03-23T15:13:17;3.55;;;0.98;;
45522;SDS011;31254;51.680;5.394;2024-03-23T15:15:43;6.10;;;1.00;;
45522;SDS011;31254;51.680;5.394;2024-03-23T15:18:13;8.48;;;1.50;;
45522;SDS011;31254;51.680;5.394;2024-03-23T15:21:00;4.78;;;0.77;;
45522;SDS011;31254;51.680;5.394;2024-03-23T15:23:33;3.50;;;0.75;;
45522;SDS011;31254;51.680;5.394;2024-03-23T15:25:59;3.08;;;0.80;;
45522;SDS011;31254;51.680;5.394;2024-03-23T15:28:26;4.90;;;0.60;;
45522;SDS011;31254;51.680;5.394;2024-03-23T15:31:06;4.18;;;0.60;;
45522;SDS011;31254;51.680;5.394;2024-03-23T15:33:32;0.95;;;0.38;;
45522;SDS011;31254;51.680;5.394;2024-03-23T15:36:02;2.63;;;0.35;;
45522;SDS011;31254;51.680;5.394;2024-03-23T15:38:28;1.90;;;0.40;;
45522;SDS011;31254;51.680;5.394;2024-03-23T15:40:57;0.30;;;0.20;;
45522;SDS011;31254;51.680;5.394;2024-03-23T15:43:23;1.58;;;0.40;;
45522;SDS011;31254;51.680;5.394;2024-03-23T15:45:58;0.88;;;0.40;;